Overview Statistics Trail Chart Weather Telemetry Raw packets
 

This is the latest recevied weather packets stored in our database for station/object OE5MMP-13. If no packets are shown the sender has not sent any weather packets the latest 10 day(s).

<< 34 35 36 37 38 39 40 >>
Time Temp. Humidity Pressure Rain* Wind** Luminosity Snow
1788167606 21.11° C 67% 1018.6 hPa 0 mm - 843 W/m² -
1788167006 20.56° C 67% 1018.6 hPa 0 mm - 163 W/m² -
1788166406 21.11° C 67% 1018.6 hPa 0 mm - 325 W/m² -
1788165806 20.56° C 71% 1018.5 hPa 0 mm - 302 W/m² -
1788165206 20.56° C 71% 1018.3 hPa 0 mm - 438 W/m² -
1788164605 20° C 72% 1018.3 hPa 0 mm - 290 W/m² -
1788164006 20° C 71% 1018.2 hPa 0 mm - 185 W/m² -
1788163405 20.56° C 73% 1018 hPa 0 mm - 188 W/m² -
1788162805 20° C 74% 1017.9 hPa 0 mm - 703 W/m² -
1788162205 19.44° C 79% 1017.9 hPa 0 mm - 579 W/m² -
1788161605 18.33° C 83% 1017.8 hPa 0 mm - 439 W/m² -
1788161006 17.78° C 85% 1017.7 hPa 0 mm - 511 W/m² -
1788160405 17.78° C 84% 1017.7 hPa 0 mm - 53 W/m² -
1788159805 17.78° C 84% 1017.8 hPa 0 mm - 106 W/m² -
1788159205 17.78° C 84% 1017.7 hPa 0 mm - 152 W/m² -
1788158605 17.78° C 85% 1017.5 hPa 0 mm - 149 W/m² -
1788158005 17.22° C 85% 1017.5 hPa 0 mm - 160 W/m² -
1788157405 17.22° C 86% 1017.7 hPa 0 mm - 115 W/m² -
1788156805 17.22° C 86% 1017.7 hPa 0 mm - 60 W/m² -
1788156205 17.22° C 86% 1017.7 hPa 0 mm - 33 W/m² -
1788155605 17.22° C 86% 1017.7 hPa 0.25 mm - 23 W/m² -
1788155005 17.78° C 85% 1017.5 hPa 0.25 mm - 23 W/m² -
1788154405 17.78° C 84% 1017.7 hPa 0.25 mm - 21 W/m² -
1788153805 17.78° C 83% 1017.4 hPa 0.25 mm - 30 W/m² -
1788153205 18.33° C 82% 1017.4 hPa 0.25 mm - 32 W/m² -

* Rain latest hour (hover to see other rain measurements)
** Current wind speed in m/s (hover to see current wind gust speed)